sensor_id;sensor_type;location;lat;lon;timestamp;temperature;humidity
14210;DHT22;7188;56.070;12.698;2023-06-26T00:00:29;18.70;99.90
14210;DHT22;7188;56.070;12.698;2023-06-26T00:02:54;18.70;99.90
14210;DHT22;7188;56.070;12.698;2023-06-26T00:05:20;18.60;99.90
14210;DHT22;7188;56.070;12.698;2023-06-26T00:07:45;18.60;1.00
14210;DHT22;7188;56.070;12.698;2023-06-26T00:10:11;18.50;1.00
14210;DHT22;7188;56.070;12.698;2023-06-26T00:12:37;18.50;1.00
14210;DHT22;7188;56.070;12.698;2023-06-26T00:15:02;18.50;1.00
14210;DHT22;7188;56.070;12.698;2023-06-26T00:17:28;18.50;1.00
14210;DHT22;7188;56.070;12.698;2023-06-26T00:19:54;18.50;1.00
14210;DHT22;7188;56.070;12.698;2023-06-26T00:22:21;18.50;1.00
14210;DHT22;7188;56.070;12.698;2023-06-26T00:24:46;18.50;1.00
14210;DHT22;7188;56.070;12.698;2023-06-26T00:27:12;18.50;1.00
14210;DHT22;7188;56.070;12.698;2023-06-26T00:29:38;18.50;99.90
14210;DHT22;7188;56.070;12.698;2023-06-26T00:32:04;18.40;1.00
14210;DHT22;7188;56.070;12.698;2023-06-26T00:34:30;18.40;1.00
14210;DHT22;7188;56.070;12.698;2023-06-26T00:36:55;18.40;1.00
14210;DHT22;7188;56.070;12.698;2023-06-26T00:39:22;18.40;1.00
14210;DHT22;7188;56.070;12.698;2023-06-26T00:41:48;18.40;99.90
14210;DHT22;7188;56.070;12.698;2023-06-26T00:44:13;18.40;1.00
14210;DHT22;7188;56.070;12.698;2023-06-26T00:46:39;18.40;1.00
14210;DHT22;7188;56.070;12.698;2023-06-26T00:49:05;18.40;1.00
14210;DHT22;7188;56.070;12.698;2023-06-26T00:51:31;18.40;1.00
14210;DHT22;7188;56.070;12.698;2023-06-26T00:53:57;18.40;1.00
14210;DHT22;7188;56.070;12.698;2023-06-26T00:56:23;18.40;1.00
14210;DHT22;7188;56.070;12.698;2023-06-26T00:58:49;18.40;1.00
14210;DHT22;7188;56.070;12.698;2023-06-26T01:01:15;18.40;1.00
14210;DHT22;7188;56.070;12.698;2023-06-26T01:03:44;18.40;1.00
14210;DHT22;7188;56.070;12.698;2023-06-26T01:06:12;18.30;1.00
14210;DHT22;7188;56.070;12.698;2023-06-26T01:08:39;18.30;1.00
14210;DHT22;7188;56.070;12.698;2023-06-26T01:11:06;18.30;1.00
14210;DHT22;7188;56.070;12.698;2023-06-26T01:13:32;18.30;15.60
14210;DHT22;7188;56.070;12.698;2023-06-26T01:15:59;18.30;99.90
14210;DHT22;7188;56.070;12.698;2023-06-26T01:18:26;18.20;99.90
14210;DHT22;7188;56.070;12.698;2023-06-26T01:20:52;18.20;1.00
14210;DHT22;7188;56.070;12.698;2023-06-26T01:23:31;18.20;1.00
14210;DHT22;7188;56.070;12.698;2023-06-26T01:26:10;18.20;1.00
14210;DHT22;7188;56.070;12.698;2023-06-26T01:28:42;18.10;17.70
14210;DHT22;7188;56.070;12.698;2023-06-26T01:31:09;18.20;99.90
14210;DHT22;7188;56.070;12.698;2023-06-26T01:33:36;18.20;99.90
14210;DHT22;7188;56.070;12.698;2023-06-26T01:36:03;18.20;99.90
14210;DHT22;7188;56.070;12.698;2023-06-26T01:38:29;18.20;99.90
14210;DHT22;7188;56.070;12.698;2023-06-26T01:40:54;18.20;1.00
14210;DHT22;7188;56.070;12.698;2023-06-26T01:46:25;18.10;1.00
14210;DHT22;7188;56.070;12.698;2023-06-26T01:49:12;18.10;39.70
14210;DHT22;7188;56.070;12.698;2023-06-26T01:52:03;18.10;99.90
14210;DHT22;7188;56.070;12.698;2023-06-26T01:54:36;18.10;99.90
14210;DHT22;7188;56.070;12.698;2023-06-26T01:57:04;18.10;99.90
14210;DHT22;7188;56.070;12.698;2023-06-26T01:59:32;18.10;1.00
14210;DHT22;7188;56.070;12.698;2023-06-26T02:02:01;18.10;1.00
14210;DHT22;7188;56.070;12.698;2023-06-26T02:04:26;18.10;1.00
14210;DHT22;7188;56.070;12.698;2023-06-26T02:06:52;18.10;1.00
14210;DHT22;7188;56.070;12.698;2023-06-26T02:09:18;18.10;1.00
14210;DHT22;7188;56.070;12.698;2023-06-26T02:11:43;18.20;1.00
14210;DHT22;7188;56.070;12.698;2023-06-26T02:14:09;18.10;1.00
14210;DHT22;7188;56.070;12.698;2023-06-26T02:16:36;18.10;1.00
14210;DHT22;7188;56.070;12.698;2023-06-26T02:19:01;18.10;1.00
14210;DHT22;7188;56.070;12.698;2023-06-26T02:21:27;18.00;99.90
14210;DHT22;7188;56.070;12.698;2023-06-26T02:23:53;17.90;99.90
14210;DHT22;7188;56.070;12.698;2023-06-26T02:26:18;17.90;1.00
14210;DHT22;7188;56.070;12.698;2023-06-26T02:28:44;17.80;1.00
14210;DHT22;7188;56.070;12.698;2023-06-26T02:31:09;17.80;99.90
14210;DHT22;7188;56.070;12.698;2023-06-26T02:33:35;17.80;99.90
14210;DHT22;7188;56.070;12.698;2023-06-26T02:36:01;17.80;99.90
14210;DHT22;7188;56.070;12.698;2023-06-26T02:38:26;17.90;99.90
14210;DHT22;7188;56.070;12.698;2023-06-26T02:40:52;17.80;1.00
14210;DHT22;7188;56.070;12.698;2023-06-26T02:43:17;17.80;1.00
14210;DHT22;7188;56.070;12.698;2023-06-26T02:45:43;17.90;1.00
14210;DHT22;7188;56.070;12.698;2023-06-26T02:48:09;17.90;1.00
14210;DHT22;7188;56.070;12.698;2023-06-26T02:50:34;18.00;69.20
14210;DHT22;7188;56.070;12.698;2023-06-26T02:53:00;18.20;99.90
14210;DHT22;7188;56.070;12.698;2023-06-26T02:55:26;18.30;1.00
14210;DHT22;7188;56.070;12.698;2023-06-26T02:57:52;18.60;99.90
14210;DHT22;7188;56.070;12.698;2023-06-26T03:00:17;18.90;1.00
14210;DHT22;7188;56.070;12.698;2023-06-26T03:02:43;19.20;1.00
14210;DHT22;7188;56.070;12.698;2023-06-26T03:05:09;19.30;99.90
14210;DHT22;7188;56.070;12.698;2023-06-26T03:07:34;19.60;1.00
14210;DHT22;7188;56.070;12.698;2023-06-26T03:10:00;19.80;1.00
14210;DHT22;7188;56.070;12.698;2023-06-26T03:12:26;19.90;99.90
14210;DHT22;7188;56.070;12.698;2023-06-26T03:14:51;20.20;1.00
14210;DHT22;7188;56.070;12.698;2023-06-26T03:17:17;20.40;1.00
14210;DHT22;7188;56.070;12.698;2023-06-26T03:19:43;20.70;99.90
14210;DHT22;7188;56.070;12.698;2023-06-26T03:22:08;21.10;1.00
14210;DHT22;7188;56.070;12.698;2023-06-26T03:24:34;21.40;1.00
14210;DHT22;7188;56.070;12.698;2023-06-26T03:27:00;21.50;1.00
14210;DHT22;7188;56.070;12.698;2023-06-26T03:29:25;21.60;99.90
14210;DHT22;7188;56.070;12.698;2023-06-26T03:31:51;21.70;99.90
14210;DHT22;7188;56.070;12.698;2023-06-26T03:34:17;21.90;99.90
14210;DHT22;7188;56.070;12.698;2023-06-26T03:36:42;22.00;99.90
14210;DHT22;7188;56.070;12.698;2023-06-26T03:39:08;22.20;1.00
14210;DHT22;7188;56.070;12.698;2023-06-26T03:41:33;22.40;1.00
14210;DHT22;7188;56.070;12.698;2023-06-26T03:43:59;22.40;1.00
14210;DHT22;7188;56.070;12.698;2023-06-26T03:46:26;22.40;1.00
14210;DHT22;7188;56.070;12.698;2023-06-26T03:48:51;22.30;1.00
14210;DHT22;7188;56.070;12.698;2023-06-26T03:51:17;22.20;1.00
14210;DHT22;7188;56.070;12.698;2023-06-26T03:53:43;22.20;1.00
14210;DHT22;7188;56.070;12.698;2023-06-26T03:56:08;22.20;1.00
14210;DHT22;7188;56.070;12.698;2023-06-26T03:58:34;22.30;1.00
14210;DHT22;7188;56.070;12.698;2023-06-26T04:01:00;22.50;1.00
14210;DHT22;7188;56.070;12.698;2023-06-26T04:03:25;22.70;1.00
14210;DHT22;7188;56.070;12.698;2023-06-26T04:05:51;22.70;1.00
14210;DHT22;7188;56.070;12.698;2023-06-26T04:08:17;22.80;1.00
14210;DHT22;7188;56.070;12.698;2023-06-26T04:10:42;23.00;1.00
14210;DHT22;7188;56.070;12.698;2023-06-26T04:13:11;23.10;1.00
14210;DHT22;7188;56.070;12.698;2023-06-26T04:15:36;23.40;99.90
14210;DHT22;7188;56.070;12.698;2023-06-26T04:18:02;23.50;99.90
14210;DHT22;7188;56.070;12.698;2023-06-26T04:20:28;23.60;99.90
14210;DHT22;7188;56.070;12.698;2023-06-26T04:22:54;23.70;99.90
14210;DHT22;7188;56.070;12.698;2023-06-26T04:25:19;23.80;99.90
14210;DHT22;7188;56.070;12.698;2023-06-26T04:27:45;24.00;99.90
14210;DHT22;7188;56.070;12.698;2023-06-26T04:30:11;24.20;99.90
14210;DHT22;7188;56.070;12.698;2023-06-26T04:32:37;24.40;99.90
14210;DHT22;7188;56.070;12.698;2023-06-26T04:35:03;24.50;99.90
14210;DHT22;7188;56.070;12.698;2023-06-26T04:37:29;24.60;99.90
14210;DHT22;7188;56.070;12.698;2023-06-26T04:39:55;24.90;99.90
14210;DHT22;7188;56.070;12.698;2023-06-26T04:42:20;25.10;36.50
14210;DHT22;7188;56.070;12.698;2023-06-26T04:44:47;25.20;1.00
14210;DHT22;7188;56.070;12.698;2023-06-26T04:47:13;25.40;1.00
14210;DHT22;7188;56.070;12.698;2023-06-26T04:49:40;25.40;1.00
14210;DHT22;7188;56.070;12.698;2023-06-26T04:52:14;25.30;1.00
14210;DHT22;7188;56.070;12.698;2023-06-26T04:54:40;25.40;1.00
14210;DHT22;7188;56.070;12.698;2023-06-26T04:57:05;25.50;1.00
14210;DHT22;7188;56.070;12.698;2023-06-26T04:59:31;25.50;1.00
14210;DHT22;7188;56.070;12.698;2023-06-26T05:01:57;25.40;1.00
14210;DHT22;7188;56.070;12.698;2023-06-26T05:04:22;25.40;1.00
14210;DHT22;7188;56.070;12.698;2023-06-26T05:06:48;25.40;1.00
14210;DHT22;7188;56.070;12.698;2023-06-26T05:09:14;25.40;1.00
14210;DHT22;7188;56.070;12.698;2023-06-26T05:11:40;25.30;1.00
14210;DHT22;7188;56.070;12.698;2023-06-26T05:14:06;25.30;1.00
14210;DHT22;7188;56.070;12.698;2023-06-26T05:16:35;25.10;1.00
14210;DHT22;7188;56.070;12.698;2023-06-26T05:19:00;25.00;1.00
14210;DHT22;7188;56.070;12.698;2023-06-26T05:21:27;25.00;1.00
14210;DHT22;7188;56.070;12.698;2023-06-26T05:23:55;24.90;1.00
14210;DHT22;7188;56.070;12.698;2023-06-26T05:26:21;25.00;1.00
14210;DHT22;7188;56.070;12.698;2023-06-26T05:28:47;25.00;1.00
14210;DHT22;7188;56.070;12.698;2023-06-26T05:31:15;25.10;1.00
14210;DHT22;7188;56.070;12.698;2023-06-26T05:33:43;25.00;1.00
14210;DHT22;7188;56.070;12.698;2023-06-26T05:36:09;24.90;1.00
14210;DHT22;7188;56.070;12.698;2023-06-26T05:38:35;25.10;1.00
14210;DHT22;7188;56.070;12.698;2023-06-26T05:41:01;25.20;1.00
14210;DHT22;7188;56.070;12.698;2023-06-26T05:43:27;25.10;1.00
14210;DHT22;7188;56.070;12.698;2023-06-26T05:45:53;25.10;1.00
14210;DHT22;7188;56.070;12.698;2023-06-26T05:48:18;25.10;1.00
14210;DHT22;7188;56.070;12.698;2023-06-26T05:50:44;25.10;1.00
14210;DHT22;7188;56.070;12.698;2023-06-26T05:53:13;25.20;1.00
14210;DHT22;7188;56.070;12.698;2023-06-26T05:55:39;25.10;1.00
14210;DHT22;7188;56.070;12.698;2023-06-26T05:58:09;24.90;1.00
14210;DHT22;7188;56.070;12.698;2023-06-26T06:00:35;24.90;1.00
14210;DHT22;7188;56.070;12.698;2023-06-26T06:03:01;24.80;1.00
14210;DHT22;7188;56.070;12.698;2023-06-26T06:05:26;24.80;1.00
14210;DHT22;7188;56.070;12.698;2023-06-26T06:07:52;24.80;1.00
14210;DHT22;7188;56.070;12.698;2023-06-26T06:10:18;24.80;1.00
14210;DHT22;7188;56.070;12.698;2023-06-26T06:12:43;24.90;1.00
14210;DHT22;7188;56.070;12.698;2023-06-26T06:15:09;25.10;1.00
14210;DHT22;7188;56.070;12.698;2023-06-26T06:17:34;25.10;1.00
14210;DHT22;7188;56.070;12.698;2023-06-26T06:20:00;25.10;1.00
14210;DHT22;7188;56.070;12.698;2023-06-26T06:22:26;25.10;1.00
14210;DHT22;7188;56.070;12.698;2023-06-26T06:24:51;25.20;1.00
14210;DHT22;7188;56.070;12.698;2023-06-26T06:27:17;25.20;1.00
14210;DHT22;7188;56.070;12.698;2023-06-26T06:29:43;25.20;1.00
14210;DHT22;7188;56.070;12.698;2023-06-26T06:32:09;25.20;1.00
14210;DHT22;7188;56.070;12.698;2023-06-26T06:34:34;25.20;1.00
14210;DHT22;7188;56.070;12.698;2023-06-26T06:37:01;25.10;1.00
14210;DHT22;7188;56.070;12.698;2023-06-26T06:39:27;25.20;1.00
14210;DHT22;7188;56.070;12.698;2023-06-26T06:41:52;25.30;1.00
14210;DHT22;7188;56.070;12.698;2023-06-26T06:44:18;25.40;1.00
14210;DHT22;7188;56.070;12.698;2023-06-26T06:46:43;25.60;1.00
14210;DHT22;7188;56.070;12.698;2023-06-26T06:49:09;25.70;1.00
14210;DHT22;7188;56.070;12.698;2023-06-26T06:51:35;25.70;1.00
14210;DHT22;7188;56.070;12.698;2023-06-26T06:54:02;25.90;1.00
14210;DHT22;7188;56.070;12.698;2023-06-26T06:56:27;25.90;1.00
14210;DHT22;7188;56.070;12.698;2023-06-26T06:58:53;25.90;1.00
14210;DHT22;7188;56.070;12.698;2023-06-26T07:01:19;25.90;1.00
14210;DHT22;7188;56.070;12.698;2023-06-26T07:03:44;26.00;1.00
14210;DHT22;7188;56.070;12.698;2023-06-26T07:06:10;25.80;1.00
14210;DHT22;7188;56.070;12.698;2023-06-26T07:08:36;25.80;1.00
14210;DHT22;7188;56.070;12.698;2023-06-26T07:11:01;25.90;1.00
14210;DHT22;7188;56.070;12.698;2023-06-26T07:13:28;26.00;1.00
14210;DHT22;7188;56.070;12.698;2023-06-26T07:15:54;26.10;1.00
14210;DHT22;7188;56.070;12.698;2023-06-26T07:18:19;26.10;1.00
14210;DHT22;7188;56.070;12.698;2023-06-26T07:20:45;26.20;1.00
14210;DHT22;7188;56.070;12.698;2023-06-26T07:23:10;26.10;1.00
14210;DHT22;7188;56.070;12.698;2023-06-26T07:25:36;26.20;1.00
14210;DHT22;7188;56.070;12.698;2023-06-26T07:28:02;26.30;1.00
14210;DHT22;7188;56.070;12.698;2023-06-26T07:30:28;26.30;1.00
14210;DHT22;7188;56.070;12.698;2023-06-26T07:32:54;26.30;1.00
14210;DHT22;7188;56.070;12.698;2023-06-26T07:35:38;26.40;1.00
14210;DHT22;7188;56.070;12.698;2023-06-26T07:38:04;26.30;1.00
14210;DHT22;7188;56.070;12.698;2023-06-26T07:40:29;26.10;1.00
14210;DHT22;7188;56.070;12.698;2023-06-26T07:42:55;26.20;1.00
14210;DHT22;7188;56.070;12.698;2023-06-26T07:45:20;26.40;1.00
14210;DHT22;7188;56.070;12.698;2023-06-26T07:47:46;26.60;1.00
14210;DHT22;7188;56.070;12.698;2023-06-26T07:50:12;26.70;1.00
14210;DHT22;7188;56.070;12.698;2023-06-26T07:52:37;26.80;1.00
14210;DHT22;7188;56.070;12.698;2023-06-26T07:55:03;26.80;1.00
14210;DHT22;7188;56.070;12.698;2023-06-26T07:57:30;26.80;1.00
14210;DHT22;7188;56.070;12.698;2023-06-26T08:00:00;26.90;1.00
14210;DHT22;7188;56.070;12.698;2023-06-26T08:02:26;26.90;1.00
14210;DHT22;7188;56.070;12.698;2023-06-26T08:04:51;26.90;1.00
14210;DHT22;7188;56.070;12.698;2023-06-26T08:07:35;27.00;1.00
14210;DHT22;7188;56.070;12.698;2023-06-26T08:10:02;27.10;1.00
14210;DHT22;7188;56.070;12.698;2023-06-26T08:12:28;27.10;1.00
14210;DHT22;7188;56.070;12.698;2023-06-26T08:15:12;26.90;1.00
14210;DHT22;7188;56.070;12.698;2023-06-26T08:17:38;27.00;1.00
14210;DHT22;7188;56.070;12.698;2023-06-26T08:20:05;27.00;1.00
14210;DHT22;7188;56.070;12.698;2023-06-26T08:22:33;27.20;1.00
14210;DHT22;7188;56.070;12.698;2023-06-26T08:24:59;27.30;1.00
14210;DHT22;7188;56.070;12.698;2023-06-26T08:27:25;27.30;1.00
14210;DHT22;7188;56.070;12.698;2023-06-26T08:29:51;27.10;1.00
14210;DHT22;7188;56.070;12.698;2023-06-26T08:32:16;27.10;1.00
14210;DHT22;7188;56.070;12.698;2023-06-26T08:34:42;27.10;1.00
14210;DHT22;7188;56.070;12.698;2023-06-26T08:37:09;27.10;1.00
14210;DHT22;7188;56.070;12.698;2023-06-26T08:39:35;27.00;1.00
14210;DHT22;7188;56.070;12.698;2023-06-26T08:42:01;26.90;1.00
14210;DHT22;7188;56.070;12.698;2023-06-26T08:44:26;26.90;1.00
14210;DHT22;7188;56.070;12.698;2023-06-26T08:46:52;26.70;1.00
14210;DHT22;7188;56.070;12.698;2023-06-26T08:49:18;26.80;1.00
14210;DHT22;7188;56.070;12.698;2023-06-26T08:51:50;26.90;1.00
14210;DHT22;7188;56.070;12.698;2023-06-26T08:54:17;26.90;1.00
14210;DHT22;7188;56.070;12.698;2023-06-26T08:56:49;26.90;1.00
14210;DHT22;7188;56.070;12.698;2023-06-26T08:59:15;27.00;1.00
14210;DHT22;7188;56.070;12.698;2023-06-26T09:01:42;27.20;1.00
14210;DHT22;7188;56.070;12.698;2023-06-26T09:04:07;27.40;1.00
14210;DHT22;7188;56.070;12.698;2023-06-26T09:06:33;27.50;1.00
14210;DHT22;7188;56.070;12.698;2023-06-26T09:08:59;27.60;1.00
14210;DHT22;7188;56.070;12.698;2023-06-26T09:11:25;27.60;1.00
14210;DHT22;7188;56.070;12.698;2023-06-26T09:13:51;27.60;1.00
14210;DHT22;7188;56.070;12.698;2023-06-26T09:16:17;27.70;1.00
14210;DHT22;7188;56.070;12.698;2023-06-26T09:18:44;27.80;1.00
14210;DHT22;7188;56.070;12.698;2023-06-26T09:21:11;27.80;1.00
14210;DHT22;7188;56.070;12.698;2023-06-26T09:23:37;27.80;1.00
14210;DHT22;7188;56.070;12.698;2023-06-26T09:26:07;28.00;1.00
14210;DHT22;7188;56.070;12.698;2023-06-26T09:28:34;28.10;1.00
14210;DHT22;7188;56.070;12.698;2023-06-26T09:31:04;28.20;1.00
14210;DHT22;7188;56.070;12.698;2023-06-26T09:33:35;28.40;1.00
14210;DHT22;7188;56.070;12.698;2023-06-26T09:36:09;28.40;1.00
14210;DHT22;7188;56.070;12.698;2023-06-26T09:38:43;28.50;1.00
14210;DHT22;7188;56.070;12.698;2023-06-26T09:41:09;28.60;1.00
14210;DHT22;7188;56.070;12.698;2023-06-26T09:43:34;28.70;1.00
14210;DHT22;7188;56.070;12.698;2023-06-26T09:46:24;28.70;1.00
14210;DHT22;7188;56.070;12.698;2023-06-26T09:49:07;28.90;1.00
14210;DHT22;7188;56.070;12.698;2023-06-26T09:51:34;29.00;1.00
14210;DHT22;7188;56.070;12.698;2023-06-26T09:54:01;29.00;1.00
14210;DHT22;7188;56.070;12.698;2023-06-26T09:56:39;29.00;1.00
14210;DHT22;7188;56.070;12.698;2023-06-26T09:59:05;29.00;1.00
14210;DHT22;7188;56.070;12.698;2023-06-26T10:01:40;29.10;1.00
14210;DHT22;7188;56.070;12.698;2023-06-26T10:04:06;28.80;1.00
14210;DHT22;7188;56.070;12.698;2023-06-26T10:06:35;28.80;1.00
14210;DHT22;7188;56.070;12.698;2023-06-26T10:09:02;28.80;1.00
14210;DHT22;7188;56.070;12.698;2023-06-26T10:11:54;28.70;1.00
14210;DHT22;7188;56.070;12.698;2023-06-26T10:14:21;28.60;1.00
14210;DHT22;7188;56.070;12.698;2023-06-26T10:16:50;28.60;1.00
14210;DHT22;7188;56.070;12.698;2023-06-26T10:19:19;28.60;1.00
14210;DHT22;7188;56.070;12.698;2023-06-26T10:21:52;28.60;1.00
14210;DHT22;7188;56.070;12.698;2023-06-26T10:24:19;28.60;1.00
14210;DHT22;7188;56.070;12.698;2023-06-26T10:26:49;28.60;1.00
14210;DHT22;7188;56.070;12.698;2023-06-26T10:29:15;28.40;1.00
14210;DHT22;7188;56.070;12.698;2023-06-26T10:31:45;28.30;1.00
14210;DHT22;7188;56.070;12.698;2023-06-26T10:34:12;28.40;1.00
14210;DHT22;7188;56.070;12.698;2023-06-26T10:36:38;28.80;1.00
14210;DHT22;7188;56.070;12.698;2023-06-26T10:39:05;29.00;1.00
14210;DHT22;7188;56.070;12.698;2023-06-26T10:41:37;29.10;1.00
14210;DHT22;7188;56.070;12.698;2023-06-26T10:44:11;29.20;1.00
14210;DHT22;7188;56.070;12.698;2023-06-26T10:46:56;29.20;1.00
14210;DHT22;7188;56.070;12.698;2023-06-26T10:49:28;29.10;1.00
14210;DHT22;7188;56.070;12.698;2023-06-26T10:51:54;29.10;1.00
14210;DHT22;7188;56.070;12.698;2023-06-26T10:54:23;29.10;1.00
14210;DHT22;7188;56.070;12.698;2023-06-26T10:56:49;29.30;1.00
14210;DHT22;7188;56.070;12.698;2023-06-26T10:59:22;29.60;1.00
14210;DHT22;7188;56.070;12.698;2023-06-26T11:04:47;29.60;1.00
14210;DHT22;7188;56.070;12.698;2023-06-26T11:07:24;29.80;1.00
14210;DHT22;7188;56.070;12.698;2023-06-26T11:12:40;30.40;99.90
14210;DHT22;7188;56.070;12.698;2023-06-26T11:15:14;30.60;99.90
14210;DHT22;7188;56.070;12.698;2023-06-26T11:17:41;30.30;99.90
14210;DHT22;7188;56.070;12.698;2023-06-26T11:20:09;30.30;99.90
14210;DHT22;7188;56.070;12.698;2023-06-26T11:22:36;30.30;99.90
14210;DHT22;7188;56.070;12.698;2023-06-26T11:25:03;30.40;99.90
14210;DHT22;7188;56.070;12.698;2023-06-26T11:30:11;30.60;99.90
14210;DHT22;7188;56.070;12.698;2023-06-26T11:32:38;30.50;99.90
14210;DHT22;7188;56.070;12.698;2023-06-26T11:35:04;30.60;99.90
14210;DHT22;7188;56.070;12.698;2023-06-26T11:37:33;30.80;99.90
14210;DHT22;7188;56.070;12.698;2023-06-26T11:39:59;30.70;99.90
14210;DHT22;7188;56.070;12.698;2023-06-26T11:42:25;30.70;99.90
14210;DHT22;7188;56.070;12.698;2023-06-26T11:44:51;30.70;99.90
14210;DHT22;7188;56.070;12.698;2023-06-26T11:47:18;30.60;99.90
14210;DHT22;7188;56.070;12.698;2023-06-26T11:49:45;30.50;99.90
14210;DHT22;7188;56.070;12.698;2023-06-26T11:52:11;30.50;99.90
14210;DHT22;7188;56.070;12.698;2023-06-26T11:54:37;30.50;99.90
14210;DHT22;7188;56.070;12.698;2023-06-26T11:57:04;30.40;99.90
14210;DHT22;7188;56.070;12.698;2023-06-26T11:59:50;30.30;99.90
14210;DHT22;7188;56.070;12.698;2023-06-26T12:02:16;30.10;99.90
14210;DHT22;7188;56.070;12.698;2023-06-26T12:04:43;30.10;99.90
14210;DHT22;7188;56.070;12.698;2023-06-26T12:07:10;30.00;99.90
14210;DHT22;7188;56.070;12.698;2023-06-26T12:09:43;29.80;99.90
14210;DHT22;7188;56.070;12.698;2023-06-26T12:12:10;29.60;99.90
14210;DHT22;7188;56.070;12.698;2023-06-26T12:14:36;29.40;99.90
14210;DHT22;7188;56.070;12.698;2023-06-26T12:17:08;29.20;99.90
14210;DHT22;7188;56.070;12.698;2023-06-26T12:19:37;29.10;99.90
14210;DHT22;7188;56.070;12.698;2023-06-26T12:22:06;29.00;99.90
14210;DHT22;7188;56.070;12.698;2023-06-26T12:24:32;28.80;99.90
14210;DHT22;7188;56.070;12.698;2023-06-26T12:26:57;28.70;99.90
14210;DHT22;7188;56.070;12.698;2023-06-26T12:29:33;28.60;99.90
14210;DHT22;7188;56.070;12.698;2023-06-26T12:31:59;28.50;99.90
14210;DHT22;7188;56.070;12.698;2023-06-26T12:34:33;28.30;99.90
14210;DHT22;7188;56.070;12.698;2023-06-26T12:37:07;28.00;99.90
14210;DHT22;7188;56.070;12.698;2023-06-26T12:39:59;28.00;99.90
14210;DHT22;7188;56.070;12.698;2023-06-26T12:42:26;27.80;99.90
14210;DHT22;7188;56.070;12.698;2023-06-26T12:44:53;27.70;99.90
14210;DHT22;7188;56.070;12.698;2023-06-26T12:47:27;27.70;1.00
14210;DHT22;7188;56.070;12.698;2023-06-26T12:49:54;27.60;99.90
14210;DHT22;7188;56.070;12.698;2023-06-26T12:52:20;27.50;99.90
14210;DHT22;7188;56.070;12.698;2023-06-26T12:54:51;27.30;1.00
14210;DHT22;7188;56.070;12.698;2023-06-26T12:57:16;27.30;1.00
14210;DHT22;7188;56.070;12.698;2023-06-26T12:59:42;27.10;1.00
14210;DHT22;7188;56.070;12.698;2023-06-26T13:02:08;27.00;1.00
14210;DHT22;7188;56.070;12.698;2023-06-26T13:04:34;26.80;1.00
14210;DHT22;7188;56.070;12.698;2023-06-26T13:07:01;26.70;1.00
14210;DHT22;7188;56.070;12.698;2023-06-26T13:09:31;26.60;1.00
14210;DHT22;7188;56.070;12.698;2023-06-26T13:11:59;26.60;1.00
14210;DHT22;7188;56.070;12.698;2023-06-26T13:14:24;26.60;1.00
14210;DHT22;7188;56.070;12.698;2023-06-26T13:16:50;26.50;1.00
14210;DHT22;7188;56.070;12.698;2023-06-26T13:19:16;26.40;1.00
14210;DHT22;7188;56.070;12.698;2023-06-26T13:21:42;26.40;1.00
14210;DHT22;7188;56.070;12.698;2023-06-26T13:24:08;26.30;1.00
14210;DHT22;7188;56.070;12.698;2023-06-26T13:26:33;26.10;1.00
14210;DHT22;7188;56.070;12.698;2023-06-26T13:28:59;26.10;1.00
14210;DHT22;7188;56.070;12.698;2023-06-26T13:31:25;25.40;1.00
14210;DHT22;7188;56.070;12.698;2023-06-26T13:33:51;24.70;1.00
14210;DHT22;7188;56.070;12.698;2023-06-26T13:36:19;24.10;1.00
14210;DHT22;7188;56.070;12.698;2023-06-26T13:39:06;23.60;1.00
14210;DHT22;7188;56.070;12.698;2023-06-26T13:41:33;23.30;1.00
14210;DHT22;7188;56.070;12.698;2023-06-26T13:43:58;22.70;28.30
14210;DHT22;7188;56.070;12.698;2023-06-26T13:46:24;22.10;99.90
14210;DHT22;7188;56.070;12.698;2023-06-26T13:48:50;21.70;1.00
14210;DHT22;7188;56.070;12.698;2023-06-26T13:51:15;21.30;1.00
14210;DHT22;7188;56.070;12.698;2023-06-26T13:53:41;21.10;1.00
14210;DHT22;7188;56.070;12.698;2023-06-26T13:56:07;20.90;99.90
14210;DHT22;7188;56.070;12.698;2023-06-26T13:58:35;20.50;99.90
14210;DHT22;7188;56.070;12.698;2023-06-26T14:01:01;20.30;99.90
14210;DHT22;7188;56.070;12.698;2023-06-26T14:03:28;20.40;1.00
14210;DHT22;7188;56.070;12.698;2023-06-26T14:05:54;20.30;1.00
14210;DHT22;7188;56.070;12.698;2023-06-26T14:08:19;20.30;99.90
14210;DHT22;7188;56.070;12.698;2023-06-26T14:10:45;20.20;1.00
14210;DHT22;7188;56.070;12.698;2023-06-26T14:13:11;20.10;99.90
14210;DHT22;7188;56.070;12.698;2023-06-26T14:15:40;20.10;1.00
14210;DHT22;7188;56.070;12.698;2023-06-26T14:18:06;20.20;53.60
14210;DHT22;7188;56.070;12.698;2023-06-26T14:20:33;20.20;99.90
14210;DHT22;7188;56.070;12.698;2023-06-26T14:22:59;20.00;99.90
14210;DHT22;7188;56.070;12.698;2023-06-26T14:25:25;19.80;99.90
14210;DHT22;7188;56.070;12.698;2023-06-26T14:27:54;19.70;99.90
14210;DHT22;7188;56.070;12.698;2023-06-26T14:30:20;19.60;82.90
14210;DHT22;7188;56.070;12.698;2023-06-26T14:32:45;19.60;1.00
14210;DHT22;7188;56.070;12.698;2023-06-26T14:35:11;19.70;1.00
14210;DHT22;7188;56.070;12.698;2023-06-26T14:37:36;19.80;1.00
14210;DHT22;7188;56.070;12.698;2023-06-26T14:40:07;19.80;1.00
14210;DHT22;7188;56.070;12.698;2023-06-26T14:42:33;19.90;1.00
14210;DHT22;7188;56.070;12.698;2023-06-26T14:44:59;19.90;1.00
14210;DHT22;7188;56.070;12.698;2023-06-26T14:47:24;19.90;1.00
14210;DHT22;7188;56.070;12.698;2023-06-26T14:49:50;19.80;1.00
14210;DHT22;7188;56.070;12.698;2023-06-26T14:52:16;19.70;1.00
14210;DHT22;7188;56.070;12.698;2023-06-26T14:54:41;19.90;1.00
14210;DHT22;7188;56.070;12.698;2023-06-26T14:57:07;20.00;1.00
14210;DHT22;7188;56.070;12.698;2023-06-26T14:59:33;20.00;1.00
14210;DHT22;7188;56.070;12.698;2023-06-26T15:01:59;20.10;99.90
14210;DHT22;7188;56.070;12.698;2023-06-26T15:04:25;20.30;1.00
14210;DHT22;7188;56.070;12.698;2023-06-26T15:06:52;20.30;99.90
14210;DHT22;7188;56.070;12.698;2023-06-26T15:09:18;20.20;1.00
14210;DHT22;7188;56.070;12.698;2023-06-26T15:11:43;20.20;1.00
14210;DHT22;7188;56.070;12.698;2023-06-26T15:14:09;20.30;72.00
14210;DHT22;7188;56.070;12.698;2023-06-26T15:16:35;20.40;99.90
14210;DHT22;7188;56.070;12.698;2023-06-26T15:19:00;20.50;99.90
14210;DHT22;7188;56.070;12.698;2023-06-26T15:21:26;20.60;99.90
14210;DHT22;7188;56.070;12.698;2023-06-26T15:23:52;20.60;99.90
14210;DHT22;7188;56.070;12.698;2023-06-26T15:26:18;20.50;99.90
14210;DHT22;7188;56.070;12.698;2023-06-26T15:28:43;20.50;12.50
14210;DHT22;7188;56.070;12.698;2023-06-26T15:31:09;20.50;1.00
14210;DHT22;7188;56.070;12.698;2023-06-26T15:33:35;20.50;1.00
14210;DHT22;7188;56.070;12.698;2023-06-26T15:36:00;20.50;99.90
14210;DHT22;7188;56.070;12.698;2023-06-26T15:38:28;20.60;99.90
14210;DHT22;7188;56.070;12.698;2023-06-26T15:40:54;20.50;1.00
14210;DHT22;7188;56.070;12.698;2023-06-26T15:43:20;20.50;14.50
14210;DHT22;7188;56.070;12.698;2023-06-26T15:45:46;20.40;1.00
14210;DHT22;7188;56.070;12.698;2023-06-26T15:48:11;20.30;1.00
14210;DHT22;7188;56.070;12.698;2023-06-26T15:50:37;20.30;99.90
14210;DHT22;7188;56.070;12.698;2023-06-26T15:53:03;20.20;1.00